Time;durP1;ratioP1;P1;durP2;ratioP2;P2;SDS_P1;SDS_P2;PMS_P1;PMS_P2;Temp;Humidity;BMP_temperature;BMP_pressure;BME280_temperature;BME280_humidity;BME280_pressure;Samples;Min_cycle;Max_cycle;Signal;HPM_P1;HPM_P2
2023/09/01 00:01:57;;;;;;;3.53;0.90;;;;;;;;;;20805075;28;20234;-84
2023/09/01 00:12:11;;;;;;;1.80;0.90;;;;;;;;;;20825323;28;20296;-82
2023/09/01 00:22:12;;;;;;;1.17;0.73;;;;;;;;;;20800172;28;20655;-83
2023/09/01 00:32:15;;;;;;;1.17;0.60;;;;;;;;;;20802770;28;20712;-83
2023/09/01 00:42:16;;;;;;;1.80;0.90;;;;;;;;;;20762036;28;20285;-82
2023/09/01 00:52:19;;;;;;;1.10;0.80;;;;;;;;;;20781453;28;20260;-83
2023/09/01 01:02:21;;;;;;;1.40;0.70;;;;;;;;;;20881898;28;20549;-82
2023/09/01 01:12:46;;;;;;;1.20;0.80;;;;;;;;;;20788798;28;20227;-82
2023/09/01 01:23:07;;;;;;;1.00;0.70;;;16.80;99.90;;;;;;20797005;28;20230;-84
2023/09/01 01:33:15;;;;;;;1.20;0.70;;;;;;;;;;20797153;28;20226;-83
2023/09/01 01:43:22;;;;;;;1.10;0.80;;;;;;;;;;20769703;28;20227;-83
2023/09/01 01:53:24;;;;;;;2.23;0.90;;;;;;;;;;20784223;28;20234;-81
2023/09/01 02:03:26;;;;;;;1.13;0.90;;;;;;;;;;20806785;28;20296;-81
2023/09/01 02:13:28;;;;;;;1.60;1.10;;;;;;;;;;20817095;28;20231;-81
2023/09/01 02:23:30;;;;;;;1.60;1.07;;;;;;;;;;20848329;28;20223;-81
2023/09/01 02:33:32;;;;;;;1.90;1.30;;;;;;;;;;20807147;28;20288;-81
2023/09/01 02:43:34;;;;;;;2.07;1.33;;;;;;;;;;20838612;28;20288;-80
2023/09/01 02:53:37;;;;;;;3.67;1.20;;;;;;;;;;20836398;28;20243;-81
2023/09/01 03:03:40;;;;;;;1.20;0.93;;;;;;;;;;20831544;28;20266;-80
2023/09/01 03:13:42;;;;;;;3.70;1.10;;;;;;;;;;20807284;28;20222;-80
2023/09/01 03:23:43;;;;;;;1.60;1.00;;;;;;;;;;20816753;28;20703;-80
2023/09/01 03:33:45;;;;;;;1.47;0.80;;;;;;;;;;20829317;28;20231;-82
2023/09/01 03:43:48;;;;;;;1.40;0.70;;;;;;;;;;20825478;28;20237;-80
2023/09/01 03:53:50;;;;;;;1.40;0.90;;;;;;;;;;20839863;28;20707;-81
2023/09/01 04:03:53;;;;;;;0.97;0.60;;;;;;;;;;20842936;28;20234;-82
2023/09/01 04:13:55;;;;;;;0.90;0.50;;;;;;;;;;20806814;28;20269;-82
2023/09/01 04:23:58;;;;;;;1.10;0.60;;;17.20;99.90;;;;;;20799512;28;20211;-83
2023/09/01 04:34:00;;;;;;;0.60;0.50;;;;;;;;;;20812163;28;20226;-81
2023/09/01 04:44:02;;;;;;;1.40;0.43;;;;;;;;;;20824103;28;20578;-82
2023/09/01 04:54:04;;;;;;;1.67;0.70;;;;;;;;;;20812409;28;20304;-80
2023/09/01 05:04:07;;;;;;;1.83;0.57;;;;;;;;;;20828350;28;20276;-80
2023/09/01 05:14:19;;;;;;;1.33;0.60;;;;;;;;;;20824592;28;20227;-80
2023/09/01 05:24:21;;;;;;;1.07;0.50;;;;;;;;;;20776157;28;20300;-81
2023/09/01 05:34:23;;;;;;;1.07;0.97;;;;;;;;;;20820475;28;20254;-82
2023/09/01 05:44:26;;;;;;;0.40;0.40;;;;;;;;;;20790197;28;20740;-82
2023/09/01 05:54:29;;;;;;;5.87;0.63;;;;;;;;;;20786262;28;20293;-81
2023/09/01 06:04:31;;;;;;;0.53;0.43;;;;;;;;;;20848021;28;20292;-82
2023/09/01 06:14:32;;;;;;;1.20;0.60;;;;;;;;;;20844387;28;20222;-81
2023/09/01 06:24:35;;;;;;;1.10;0.50;;;;;;;;;;20783506;28;20231;-82
2023/09/01 06:34:37;;;;;;;0.67;0.40;;;;;;;;;;20796215;28;20223;-80
2023/09/01 06:44:38;;;;;;;1.30;0.40;;;;;;;;;;20809566;28;20239;-82
2023/09/01 06:54:40;;;;;;;0.83;0.40;;;;;;;;;;20818881;28;20238;-81
2023/09/01 07:04:42;;;;;;;0.90;0.50;;;;;;;;;;20827044;28;20356;-82
2023/09/01 07:14:44;;;;;;;1.50;0.50;;;;;;;;;;20843243;28;20211;-81
2023/09/01 07:24:46;;;;;;;0.47;0.23;;;;;;;;;;20820509;28;20767;-81
2023/09/01 07:34:48;;;;;;;0.47;0.40;;;;;;;;;;20845040;28;20218;-82
2023/09/01 07:44:56;;;;;;;1.00;0.57;;;;;;;;;;20845362;28;20263;-82
2023/09/01 07:54:58;;;;;;;0.60;0.50;;;;;;;;;;20808665;28;20242;-82
2023/09/01 08:05:00;;;;;;;0.60;0.43;;;;;;;;;;20827578;28;20273;-82
2023/09/01 08:15:02;;;;;;;1.60;0.50;;;;;;;;;;20810578;28;20221;-82
2023/09/01 08:25:06;;;;;;;1.10;0.60;;;;;;;;;;20824692;28;20285;-82
2023/09/01 08:35:07;;;;;;;1.20;0.73;;;;;;;;;;20758413;28;20227;-81
2023/09/01 08:45:10;;;;;;;0.40;0.30;;;;;;;;;;20807237;28;20262;-81
2023/09/01 08:55:13;;;;;;;1.10;0.40;;;;;;;;;;20831819;28;20277;-82
2023/09/01 09:05:15;;;;;;;2.27;0.67;;;;;;;;;;20830305;28;20218;-82
2023/09/01 09:15:19;;;;;;;0.87;0.50;;;;;;;;;;20826063;28;20211;-81
2023/09/01 09:25:31;;;;;;;1.20;0.73;;;;;;;;;;20812622;28;20239;-81
2023/09/01 09:35:34;;;;;;;0.90;0.40;;;18.60;99.90;;;;;;20809404;28;20535;-82
2023/09/01 09:45:39;;;;;;;0.50;0.50;;;;;;;;;;20817722;28;20238;-80
2023/09/01 09:55:40;;;;;;;1.00;0.50;;;;;;;;;;20846558;28;20288;-82
2023/09/01 10:05:42;;;;;;;1.30;0.57;;;;;;;;;;20825083;28;20275;-81
2023/09/01 10:15:45;;;;;;;1.27;0.60;;;18.80;99.90;;;;;;20805513;28;20277;-83
2023/09/01 10:26:14;;;;;;;2.20;0.40;;;19.00;99.90;;;;;;20818609;28;20227;-83
2023/09/01 10:36:18;;;;;;;1.23;0.40;;;;;;;;;;20812843;28;20215;-81
2023/09/01 10:46:22;;;;;;;0.60;0.50;;;;;;;;;;20832874;28;20238;-82
2023/09/01 10:56:25;;;;;;;1.03;0.50;;;;;;;;;;20811193;28;20226;-81
2023/09/01 11:06:27;;;;;;;0.80;0.40;;;;;;;;;;20814926;28;20282;-82
2023/09/01 11:16:28;;;;;;;0.40;0.30;;;;;;;;;;20827088;28;20235;-83
2023/09/01 11:26:30;;;;;;;0.60;0.40;;;;;;;;;;20825725;28;20270;-82
2023/09/01 11:36:32;;;;;;;0.30;0.30;;;;;;;;;;20819568;28;20703;-83
2023/09/01 11:46:35;;;;;;;1.40;0.30;;;;;;;;;;20838269;28;20234;-81
2023/09/01 11:56:37;;;;;;;0.70;0.30;;;;;;;;;;20835375;28;20574;-83
2023/09/01 12:06:46;;;;;;;0.53;0.30;;;19.80;99.90;;;;;;20816037;28;20291;-82
2023/09/01 12:16:53;;;;;;;0.40;0.30;;;;;;;;;;20807219;28;20224;-83
2023/09/01 12:26:55;;;;;;;0.90;0.33;;;;;;;;;;20819455;28;20727;-82
2023/09/01 12:36:57;;;;;;;0.60;0.30;;;;;;;;;;20780103;28;20230;-82
2023/09/01 12:46:58;;;;;;;0.23;0.20;;;;;;;;;;20738173;28;20244;-82
2023/09/01 12:57:00;;;;;;;0.43;0.27;;;;;;;;;;20802097;28;20241;-81
2023/09/01 13:07:02;;;;;;;0.20;0.20;;;;;;;;;;20812369;28;20244;-81
2023/09/01 13:17:03;;;;;;;0.47;0.27;;;;;;;;;;20772889;28;20237;-81
2023/09/01 13:27:05;;;;;;;0.57;0.30;;;;;;;;;;20818285;28;20240;-80
2023/09/01 13:37:11;;;;;;;0.30;0.30;;;;;;;;;;20776852;28;20314;-81
2023/09/01 13:47:12;;;;;;;0.40;0.20;;;;;;;;;;20796672;28;20337;-81
2023/09/01 13:57:14;;;;;;;0.23;0.23;;;;;;;;;;20813776;28;20319;-82
2023/09/01 14:07:16;;;;;;;0.30;0.20;;;;;;;;;;20792503;28;20230;-82
2023/09/01 14:17:18;;;;;;;0.20;0.20;;;;;;;;;;20803876;28;20695;-81
2023/09/01 14:27:20;;;;;;;0.20;0.20;;;;;;;;;;20796024;28;20228;-83
2023/09/01 14:37:23;;;;;;;0.50;0.30;;;;;;;;;;20811809;28;20229;-81
2023/09/01 14:47:25;;;;;;;0.40;0.20;;;;;;;;;;20815851;28;20268;-81
2023/09/01 14:57:27;;;;;;;0.20;0.20;;;;;;;;;;20814937;28;20287;-81
2023/09/01 15:07:28;;;;;;;0.40;0.20;;;;;;;;;;20819545;28;20288;-82
2023/09/01 15:17:30;;;;;;;0.43;0.20;;;;;;;;;;20852908;28;20245;-81
2023/09/01 15:27:32;;;;;;;0.23;0.20;;;;;;;;;;20839375;28;20229;-81
2023/09/01 15:37:33;;;;;;;0.20;0.20;;;;;;;;;;20808486;28;20780;-81
2023/09/01 15:47:36;;;;;;;0.30;0.30;;;;;;;;;;20820932;28;20312;-81
2023/09/01 15:57:38;;;;;;;1.47;0.30;;;;;;;;;;20834338;28;20251;-81
2023/09/01 16:07:42;;;;;;;1.00;0.30;;;;;;;;;;20775440;28;20228;-81
2023/09/01 16:17:44;;;;;;;1.73;0.40;;;;;;;;;;20833495;28;20665;-81
2023/09/01 16:27:46;;;;;;;0.63;0.20;;;;;;;;;;20853736;28;20240;-81
2023/09/01 16:37:49;;;;;;;0.20;0.20;;;;;;;;;;20834133;28;20256;-80
2023/09/01 16:47:50;;;;;;;0.10;0.10;;;;;;;;;;20859134;28;20231;-80
2023/09/01 16:57:52;;;;;;;0.30;0.20;;;;;;;;;;20845401;28;20301;-80
2023/09/01 17:07:54;;;;;;;0.50;0.30;;;;;;;;;;20822099;28;20289;-81
2023/09/01 17:17:56;;;;;;;0.40;0.30;;;;;;;;;;20831908;28;20242;-81
2023/09/01 17:27:58;;;;;;;0.50;0.20;;;;;;;;;;20827062;28;20238;-80
2023/09/01 17:37:59;;;;;;;0.20;0.20;;;;;;;;;;20816410;28;20590;-80
2023/09/01 17:48:03;;;;;;;0.20;0.20;;;;;;;;;;20824289;28;20252;-80
2023/09/01 17:58:06;;;;;;;0.28;0.20;;;;;;;;;;20839292;28;20258;-80
2023/09/01 18:08:08;;;;;;;0.53;0.30;;;;;;;;;;20746281;28;20298;-80
2023/09/01 18:18:10;;;;;;;0.30;0.20;;;;;;;;;;20755283;28;20225;-80
2023/09/01 18:28:12;;;;;;;1.37;0.40;;;;;;;;;;20774187;28;20238;-81
2023/09/01 18:38:14;;;;;;;1.70;0.33;;;;;;;;;;20839696;28;20284;-80
2023/09/01 18:48:17;;;;;;;1.30;0.30;;;;;;;;;;20802279;28;20309;-80
2023/09/01 18:58:19;;;;;;;0.87;0.30;;;;;;;;;;20841272;28;20228;-80
2023/09/01 19:08:21;;;;;;;0.30;0.23;;;;;;;;;;20818500;28;20237;-81
2023/09/01 19:18:44;;;;;;;0.30;0.30;;;20.70;99.90;;;;;;20796726;28;20234;-80
2023/09/01 19:28:46;;;;;;;0.97;0.43;;;;;;;;;;20826290;28;20235;-80
2023/09/01 19:38:50;;;;;;;3.47;0.33;;;;;;;;;;20855113;28;20231;-80
2023/09/01 19:48:55;;;;;;;2.63;0.40;;;;;;;;;;20829553;28;20222;-81
2023/09/01 19:58:58;;;;;;;0.57;0.30;;;;;;;;;;20810547;28;20237;-80
2023/09/01 20:09:11;;;;;;;0.33;0.30;;;;;;;;;;20817445;28;20274;-80
2023/09/01 20:19:24;;;;;;;0.87;0.40;;;;;;;;;;20840161;28;20211;-81
2023/09/01 20:29:26;;;;;;;1.03;0.40;;;;;;;;;;20798928;28;20237;-81
2023/09/01 20:39:28;;;;;;;1.10;0.40;;;;;;;;;;20790579;28;20539;-81
2023/09/01 20:49:30;;;;;;;1.70;0.43;;;;;;;;;;20825821;28;20310;-81
2023/09/01 20:59:32;;;;;;;0.50;0.40;;;;;;;;;;20839014;28;20275;-81
2023/09/01 21:09:33;;;;;;;0.80;0.43;;;;;;;;;;20796242;28;20230;-80
2023/09/01 21:19:35;;;;;;;0.77;0.50;;;;;;;;;;20811870;28;20220;-80
2023/09/01 21:29:44;;;;;;;0.87;0.50;;;;;;;;;;20763110;28;20287;-81
2023/09/01 21:39:45;;;;;;;0.70;0.50;;;;;;;;;;20814040;28;20755;-81
2023/09/01 21:49:47;;;;;;;2.30;0.40;;;;;;;;;;20826790;28;20237;-79
2023/09/01 21:59:49;;;;;;;0.30;0.30;;;;;;;;;;20813678;28;20229;-79
2023/09/01 22:09:52;;;;;;;0.77;0.30;;;;;;;;;;20822525;28;20231;-81
2023/09/01 22:19:54;;;;;;;0.40;0.30;;;;;;;;;;20834626;28;20257;-80
2023/09/01 22:29:56;;;;;;;1.30;0.30;;;;;;;;;;20808012;28;20309;-79
2023/09/01 22:39:57;;;;;;;0.47;0.40;;;;;;;;;;20829592;28;20231;-79
2023/09/01 22:49:59;;;;;;;1.03;0.50;;;;;;;;;;20821132;28;20287;-80
2023/09/01 23:00:01;;;;;;;2.33;0.50;;;;;;;;;;20793992;28;20230;-81
2023/09/01 23:10:03;;;;;;;1.70;0.50;;;;;;;;;;20785892;28;20240;-80
2023/09/01 23:20:05;;;;;;;1.63;0.50;;;;;;;;;;20748331;28;20293;-80
2023/09/01 23:30:07;;;;;;;0.30;0.30;;;;;;;;;;20772641;28;20241;-79
2023/09/01 23:40:10;;;;;;;0.63;0.30;;;;;;;;;;20792999;28;20193;-80
2023/09/01 23:50:11;;;;;;;0.70;0.40;;;;;;;;;;20829296;28;20218;-79
